sensor_id;sensor_type;location;lat;lon;timestamp;P1;durP1;ratioP1;P2;durP2;ratioP2
69240;SDS011;56352;55.750;13.198;2023-03-03T00:00:17;10.73;;;5.80;;
69240;SDS011;56352;55.750;13.198;2023-03-03T00:02:44;9.13;;;6.25;;
69240;SDS011;56352;55.750;13.198;2023-03-03T00:05:10;12.57;;;7.30;;
69240;SDS011;56352;55.750;13.198;2023-03-03T00:07:43;9.65;;;6.57;;
69240;SDS011;56352;55.750;13.198;2023-03-03T00:10:10;11.90;;;7.13;;
69240;SDS011;56352;55.750;13.198;2023-03-03T00:12:43;11.48;;;7.43;;
69240;SDS011;56352;55.750;13.198;2023-03-03T00:15:14;11.70;;;6.95;;
69240;SDS011;56352;55.750;13.198;2023-03-03T00:17:41;11.18;;;7.28;;
69240;SDS011;56352;55.750;13.198;2023-03-03T00:20:30;11.00;;;7.15;;
69240;SDS011;56352;55.750;13.198;2023-03-03T00:22:54;10.60;;;7.35;;
69240;SDS011;56352;55.750;13.198;2023-03-03T00:25:30;14.32;;;8.43;;
69240;SDS011;56352;55.750;13.198;2023-03-03T00:28:14;12.60;;;8.40;;
69240;SDS011;56352;55.750;13.198;2023-03-03T00:30:43;10.77;;;6.80;;
69240;SDS011;56352;55.750;13.198;2023-03-03T00:33:29;9.55;;;6.90;;
69240;SDS011;56352;55.750;13.198;2023-03-03T00:36:43;11.15;;;7.35;;
69240;SDS011;56352;55.750;13.198;2023-03-03T00:38:46;10.20;;;6.03;;
69240;SDS011;56352;55.750;13.198;2023-03-03T00:41:23;11.13;;;7.35;;
69240;SDS011;56352;55.750;13.198;2023-03-03T00:43:50;8.80;;;5.68;;
69240;SDS011;56352;55.750;13.198;2023-03-03T00:46:17;10.32;;;6.80;;
69240;SDS011;56352;55.750;13.198;2023-03-03T00:48:47;13.45;;;7.53;;
69240;SDS011;56352;55.750;13.198;2023-03-03T00:51:30;8.98;;;6.97;;
69240;SDS011;56352;55.750;13.198;2023-03-03T00:53:57;9.68;;;5.93;;
69240;SDS011;56352;55.750;13.198;2023-03-03T00:56:23;11.90;;;6.85;;
69240;SDS011;56352;55.750;13.198;2023-03-03T00:58:49;14.55;;;7.45;;
69240;SDS011;56352;55.750;13.198;2023-03-03T01:01:16;14.27;;;8.23;;
69240;SDS011;56352;55.750;13.198;2023-03-03T01:03:43;16.98;;;8.73;;
69240;SDS011;56352;55.750;13.198;2023-03-03T01:06:10;17.40;;;8.35;;
69240;SDS011;56352;55.750;13.198;2023-03-03T01:08:37;13.02;;;6.95;;
69240;SDS011;56352;55.750;13.198;2023-03-03T01:11:18;14.98;;;7.72;;
69240;SDS011;56352;55.750;13.198;2023-03-03T01:13:46;13.63;;;7.55;;
69240;SDS011;56352;55.750;13.198;2023-03-03T01:16:13;12.50;;;7.38;;
69240;SDS011;56352;55.750;13.198;2023-03-03T01:18:40;9.52;;;6.57;;
69240;SDS011;56352;55.750;13.198;2023-03-03T01:21:07;17.92;;;8.50;;
69240;SDS011;56352;55.750;13.198;2023-03-03T01:23:34;14.73;;;8.63;;
69240;SDS011;56352;55.750;13.198;2023-03-03T01:26:00;16.92;;;9.32;;
69240;SDS011;56352;55.750;13.198;2023-03-03T01:28:26;19.30;;;9.90;;
69240;SDS011;56352;55.750;13.198;2023-03-03T01:30:53;19.42;;;9.52;;
69240;SDS011;56352;55.750;13.198;2023-03-03T01:33:20;18.95;;;9.38;;
69240;SDS011;56352;55.750;13.198;2023-03-03T01:35:46;20.90;;;9.05;;
69240;SDS011;56352;55.750;13.198;2023-03-03T01:38:14;15.70;;;8.45;;
69240;SDS011;56352;55.750;13.198;2023-03-03T01:40:40;17.73;;;8.80;;
69240;SDS011;56352;55.750;13.198;2023-03-03T01:43:06;16.27;;;8.10;;
69240;SDS011;56352;55.750;13.198;2023-03-03T01:45:41;13.90;;;7.68;;
69240;SDS011;56352;55.750;13.198;2023-03-03T01:48:12;17.70;;;8.82;;
69240;SDS011;56352;55.750;13.198;2023-03-03T01:50:48;15.38;;;8.82;;
69240;SDS011;56352;55.750;13.198;2023-03-03T01:53:17;14.80;;;7.97;;
69240;SDS011;56352;55.750;13.198;2023-03-03T01:55:44;15.33;;;8.40;;
69240;SDS011;56352;55.750;13.198;2023-03-03T01:58:17;13.25;;;8.13;;
69240;SDS011;56352;55.750;13.198;2023-03-03T02:00:48;14.75;;;7.63;;
69240;SDS011;56352;55.750;13.198;2023-03-03T02:05:42;14.68;;;7.80;;
69240;SDS011;56352;55.750;13.198;2023-03-03T02:08:08;13.77;;;7.90;;
69240;SDS011;56352;55.750;13.198;2023-03-03T02:10:37;11.50;;;7.22;;
69240;SDS011;56352;55.750;13.198;2023-03-03T02:13:04;15.77;;;7.97;;
69240;SDS011;56352;55.750;13.198;2023-03-03T02:15:31;12.85;;;8.38;;
69240;SDS011;56352;55.750;13.198;2023-03-03T02:17:59;15.43;;;8.52;;
69240;SDS011;56352;55.750;13.198;2023-03-03T02:23:03;16.02;;;8.98;;
69240;SDS011;56352;55.750;13.198;2023-03-03T02:25:49;15.38;;;8.10;;
69240;SDS011;56352;55.750;13.198;2023-03-03T02:28:17;15.00;;;8.63;;
69240;SDS011;56352;55.750;13.198;2023-03-03T02:30:44;15.02;;;8.38;;
69240;SDS011;56352;55.750;13.198;2023-03-03T02:33:10;18.25;;;8.68;;
69240;SDS011;56352;55.750;13.198;2023-03-03T02:35:37;17.48;;;8.48;;
69240;SDS011;56352;55.750;13.198;2023-03-03T02:38:13;17.67;;;8.65;;
69240;SDS011;56352;55.750;13.198;2023-03-03T02:43:44;18.55;;;9.13;;
69240;SDS011;56352;55.750;13.198;2023-03-03T02:46:14;14.80;;;8.65;;
69240;SDS011;56352;55.750;13.198;2023-03-03T02:48:41;20.60;;;9.50;;
69240;SDS011;56352;55.750;13.198;2023-03-03T02:51:07;19.50;;;9.38;;
69240;SDS011;56352;55.750;13.198;2023-03-03T02:53:33;19.17;;;9.60;;
69240;SDS011;56352;55.750;13.198;2023-03-03T02:56:00;19.05;;;9.45;;
69240;SDS011;56352;55.750;13.198;2023-03-03T02:58:26;18.30;;;9.77;;
69240;SDS011;56352;55.750;13.198;2023-03-03T03:00:53;17.17;;;9.43;;
69240;SDS011;56352;55.750;13.198;2023-03-03T03:03:21;23.33;;;10.20;;
69240;SDS011;56352;55.750;13.198;2023-03-03T03:05:47;21.42;;;9.45;;
69240;SDS011;56352;55.750;13.198;2023-03-03T03:08:13;27.60;;;10.80;;
69240;SDS011;56352;55.750;13.198;2023-03-03T03:10:40;28.30;;;11.82;;
69240;SDS011;56352;55.750;13.198;2023-03-03T03:13:06;21.90;;;11.07;;
69240;SDS011;56352;55.750;13.198;2023-03-03T03:15:34;23.30;;;10.23;;
69240;SDS011;56352;55.750;13.198;2023-03-03T03:18:00;24.77;;;10.98;;
69240;SDS011;56352;55.750;13.198;2023-03-03T03:20:27;21.48;;;8.82;;
69240;SDS011;56352;55.750;13.198;2023-03-03T03:22:53;24.60;;;9.68;;
69240;SDS011;56352;55.750;13.198;2023-03-03T03:25:19;20.40;;;8.75;;
69240;SDS011;56352;55.750;13.198;2023-03-03T03:27:46;18.35;;;8.75;;
69240;SDS011;56352;55.750;13.198;2023-03-03T03:30:12;18.15;;;8.02;;
69240;SDS011;56352;55.750;13.198;2023-03-03T03:32:39;16.30;;;8.90;;
69240;SDS011;56352;55.750;13.198;2023-03-03T03:35:06;15.50;;;7.57;;
69240;SDS011;56352;55.750;13.198;2023-03-03T03:37:32;24.70;;;8.18;;
69240;SDS011;56352;55.750;13.198;2023-03-03T03:39:59;13.85;;;7.63;;
69240;SDS011;56352;55.750;13.198;2023-03-03T03:42:25;12.95;;;7.43;;
69240;SDS011;56352;55.750;13.198;2023-03-03T03:44:51;13.50;;;6.97;;
69240;SDS011;56352;55.750;13.198;2023-03-03T03:47:18;11.25;;;6.03;;
69240;SDS011;56352;55.750;13.198;2023-03-03T03:49:44;12.48;;;6.78;;
69240;SDS011;56352;55.750;13.198;2023-03-03T03:52:11;10.30;;;6.63;;
69240;SDS011;56352;55.750;13.198;2023-03-03T03:54:37;11.27;;;6.57;;
69240;SDS011;56352;55.750;13.198;2023-03-03T03:57:03;13.02;;;6.53;;
69240;SDS011;56352;55.750;13.198;2023-03-03T03:59:30;12.40;;;6.38;;
69240;SDS011;56352;55.750;13.198;2023-03-03T04:01:56;12.82;;;7.15;;
69240;SDS011;56352;55.750;13.198;2023-03-03T04:04:23;11.50;;;6.15;;
69240;SDS011;56352;55.750;13.198;2023-03-03T04:06:49;10.02;;;6.32;;
69240;SDS011;56352;55.750;13.198;2023-03-03T04:09:16;12.38;;;7.13;;
69240;SDS011;56352;55.750;13.198;2023-03-03T04:11:42;14.63;;;7.05;;
69240;SDS011;56352;55.750;13.198;2023-03-03T04:14:09;12.57;;;6.38;;
69240;SDS011;56352;55.750;13.198;2023-03-03T04:16:35;9.52;;;6.22;;
69240;SDS011;56352;55.750;13.198;2023-03-03T04:19:01;9.48;;;6.10;;
69240;SDS011;56352;55.750;13.198;2023-03-03T04:21:28;8.75;;;5.70;;
69240;SDS011;56352;55.750;13.198;2023-03-03T04:23:54;9.50;;;5.68;;
69240;SDS011;56352;55.750;13.198;2023-03-03T04:26:21;10.45;;;6.65;;
69240;SDS011;56352;55.750;13.198;2023-03-03T04:28:47;11.52;;;7.15;;
69240;SDS011;56352;55.750;13.198;2023-03-03T04:31:13;10.70;;;6.97;;
69240;SDS011;56352;55.750;13.198;2023-03-03T04:33:40;12.65;;;7.20;;
69240;SDS011;56352;55.750;13.198;2023-03-03T04:36:06;12.63;;;7.88;;
69240;SDS011;56352;55.750;13.198;2023-03-03T04:38:33;15.55;;;8.35;;
69240;SDS011;56352;55.750;13.198;2023-03-03T04:40:59;14.57;;;7.68;;
69240;SDS011;56352;55.750;13.198;2023-03-03T04:43:26;14.30;;;8.63;;
69240;SDS011;56352;55.750;13.198;2023-03-03T04:45:52;15.95;;;8.55;;
69240;SDS011;56352;55.750;13.198;2023-03-03T04:48:19;15.98;;;7.82;;
69240;SDS011;56352;55.750;13.198;2023-03-03T04:50:45;16.40;;;8.13;;
69240;SDS011;56352;55.750;13.198;2023-03-03T04:53:12;14.13;;;8.18;;
69240;SDS011;56352;55.750;13.198;2023-03-03T04:55:38;14.77;;;7.82;;
69240;SDS011;56352;55.750;13.198;2023-03-03T04:58:04;15.52;;;8.10;;
69240;SDS011;56352;55.750;13.198;2023-03-03T05:00:31;12.40;;;7.65;;
69240;SDS011;56352;55.750;13.198;2023-03-03T05:03:01;14.00;;;8.25;;
69240;SDS011;56352;55.750;13.198;2023-03-03T05:05:27;15.55;;;9.18;;
69240;SDS011;56352;55.750;13.198;2023-03-03T05:07:53;15.05;;;8.10;;
69240;SDS011;56352;55.750;13.198;2023-03-03T05:10:20;13.73;;;8.45;;
69240;SDS011;56352;55.750;13.198;2023-03-03T05:12:46;16.10;;;8.13;;
69240;SDS011;56352;55.750;13.198;2023-03-03T05:15:13;11.73;;;7.30;;
69240;SDS011;56352;55.750;13.198;2023-03-03T05:17:39;12.73;;;7.70;;
69240;SDS011;56352;55.750;13.198;2023-03-03T05:20:06;12.45;;;7.72;;
69240;SDS011;56352;55.750;13.198;2023-03-03T05:22:33;12.98;;;7.78;;
69240;SDS011;56352;55.750;13.198;2023-03-03T05:25:00;14.57;;;8.50;;
69240;SDS011;56352;55.750;13.198;2023-03-03T05:27:26;11.90;;;6.93;;
69240;SDS011;56352;55.750;13.198;2023-03-03T05:29:53;12.45;;;7.38;;
69240;SDS011;56352;55.750;13.198;2023-03-03T05:32:19;12.25;;;7.03;;
69240;SDS011;56352;55.750;13.198;2023-03-03T05:34:45;13.10;;;7.50;;
69240;SDS011;56352;55.750;13.198;2023-03-03T05:37:12;12.48;;;6.88;;
69240;SDS011;56352;55.750;13.198;2023-03-03T05:39:38;11.52;;;6.90;;
69240;SDS011;56352;55.750;13.198;2023-03-03T05:42:05;15.10;;;7.45;;
69240;SDS011;56352;55.750;13.198;2023-03-03T05:44:31;13.27;;;6.70;;
69240;SDS011;56352;55.750;13.198;2023-03-03T05:46:58;14.13;;;6.72;;
69240;SDS011;56352;55.750;13.198;2023-03-03T05:49:24;12.27;;;6.82;;
69240;SDS011;56352;55.750;13.198;2023-03-03T05:51:51;13.73;;;7.35;;
69240;SDS011;56352;55.750;13.198;2023-03-03T05:54:17;14.32;;;7.35;;
69240;SDS011;56352;55.750;13.198;2023-03-03T05:56:44;13.65;;;7.60;;
69240;SDS011;56352;55.750;13.198;2023-03-03T05:59:13;15.75;;;7.93;;
69240;SDS011;56352;55.750;13.198;2023-03-03T06:01:40;18.60;;;8.25;;
69240;SDS011;56352;55.750;13.198;2023-03-03T06:04:07;16.15;;;8.48;;
69240;SDS011;56352;55.750;13.198;2023-03-03T06:06:33;17.60;;;8.85;;
69240;SDS011;56352;55.750;13.198;2023-03-03T06:09:00;21.45;;;9.82;;
69240;SDS011;56352;55.750;13.198;2023-03-03T06:11:26;20.73;;;9.48;;
69240;SDS011;56352;55.750;13.198;2023-03-03T06:13:53;20.10;;;9.10;;
69240;SDS011;56352;55.750;13.198;2023-03-03T06:16:19;21.10;;;9.68;;
69240;SDS011;56352;55.750;13.198;2023-03-03T06:18:46;21.13;;;10.18;;
69240;SDS011;56352;55.750;13.198;2023-03-03T06:21:13;26.40;;;10.60;;
69240;SDS011;56352;55.750;13.198;2023-03-03T06:23:39;24.13;;;10.18;;
69240;SDS011;56352;55.750;13.198;2023-03-03T06:26:06;24.02;;;10.23;;
69240;SDS011;56352;55.750;13.198;2023-03-03T06:28:33;21.95;;;9.98;;
69240;SDS011;56352;55.750;13.198;2023-03-03T06:30:59;21.80;;;10.20;;
69240;SDS011;56352;55.750;13.198;2023-03-03T06:33:25;20.80;;;9.32;;
69240;SDS011;56352;55.750;13.198;2023-03-03T06:35:52;25.75;;;10.60;;
69240;SDS011;56352;55.750;13.198;2023-03-03T06:38:19;21.10;;;9.77;;
69240;SDS011;56352;55.750;13.198;2023-03-03T06:40:46;25.25;;;10.38;;
69240;SDS011;56352;55.750;13.198;2023-03-03T06:43:12;22.23;;;10.60;;
69240;SDS011;56352;55.750;13.198;2023-03-03T06:45:39;22.27;;;9.75;;
69240;SDS011;56352;55.750;13.198;2023-03-03T06:48:05;23.35;;;10.40;;
69240;SDS011;56352;55.750;13.198;2023-03-03T06:50:32;24.45;;;9.43;;
69240;SDS011;56352;55.750;13.198;2023-03-03T06:53:15;31.52;;;10.38;;
69240;SDS011;56352;55.750;13.198;2023-03-03T06:55:41;20.27;;;9.93;;
69240;SDS011;56352;55.750;13.198;2023-03-03T06:58:11;21.73;;;9.98;;
69240;SDS011;56352;55.750;13.198;2023-03-03T07:00:40;25.85;;;10.27;;
69240;SDS011;56352;55.750;13.198;2023-03-03T07:03:07;20.08;;;9.43;;
69240;SDS011;56352;55.750;13.198;2023-03-03T07:05:37;20.63;;;10.18;;
69240;SDS011;56352;55.750;13.198;2023-03-03T07:08:16;22.15;;;8.98;;
69240;SDS011;56352;55.750;13.198;2023-03-03T07:10:43;15.88;;;8.80;;
69240;SDS011;56352;55.750;13.198;2023-03-03T07:18:08;18.48;;;7.55;;
69240;SDS011;56352;55.750;13.198;2023-03-03T07:23:25;17.92;;;7.35;;
69240;SDS011;56352;55.750;13.198;2023-03-03T07:25:53;17.85;;;8.02;;
69240;SDS011;56352;55.750;13.198;2023-03-03T07:30:45;17.58;;;7.15;;
69240;SDS011;56352;55.750;13.198;2023-03-03T07:35:47;17.15;;;7.80;;
69240;SDS011;56352;55.750;13.198;2023-03-03T07:40:59;17.27;;;5.82;;
69240;SDS011;56352;55.750;13.198;2023-03-03T07:43:36;13.65;;;6.70;;
69240;SDS011;56352;55.750;13.198;2023-03-03T07:48:36;16.83;;;6.95;;
69240;SDS011;56352;55.750;13.198;2023-03-03T07:51:05;12.43;;;5.35;;
69240;SDS011;56352;55.750;13.198;2023-03-03T07:53:36;12.45;;;5.38;;
69240;SDS011;56352;55.750;13.198;2023-03-03T07:56:13;14.50;;;5.95;;
69240;SDS011;56352;55.750;13.198;2023-03-03T07:58:40;13.55;;;5.47;;
69240;SDS011;56352;55.750;13.198;2023-03-03T08:03:49;15.93;;;5.45;;
69240;SDS011;56352;55.750;13.198;2023-03-03T08:08:48;15.43;;;6.53;;
69240;SDS011;56352;55.750;13.198;2023-03-03T08:11:15;10.27;;;5.22;;
69240;SDS011;56352;55.750;13.198;2023-03-03T08:13:41;11.73;;;5.32;;
69240;SDS011;56352;55.750;13.198;2023-03-03T08:18:36;14.55;;;5.30;;
69240;SDS011;56352;55.750;13.198;2023-03-03T08:21:16;12.00;;;5.40;;
69240;SDS011;56352;55.750;13.198;2023-03-03T08:23:44;10.48;;;5.35;;
69240;SDS011;56352;55.750;13.198;2023-03-03T08:26:11;8.80;;;4.95;;
69240;SDS011;56352;55.750;13.198;2023-03-03T08:28:42;9.55;;;5.40;;
69240;SDS011;56352;55.750;13.198;2023-03-03T08:31:08;12.00;;;5.43;;
69240;SDS011;56352;55.750;13.198;2023-03-03T08:33:53;9.38;;;4.97;;
69240;SDS011;56352;55.750;13.198;2023-03-03T08:36:19;8.73;;;4.90;;
69240;SDS011;56352;55.750;13.198;2023-03-03T08:38:46;9.30;;;4.40;;
69240;SDS011;56352;55.750;13.198;2023-03-03T08:41:12;8.75;;;4.60;;
69240;SDS011;56352;55.750;13.198;2023-03-03T08:43:39;6.63;;;3.85;;
69240;SDS011;56352;55.750;13.198;2023-03-03T08:46:05;8.80;;;4.30;;
69240;SDS011;56352;55.750;13.198;2023-03-03T08:48:32;10.15;;;5.13;;
69240;SDS011;56352;55.750;13.198;2023-03-03T08:50:59;9.43;;;5.10;;
69240;SDS011;56352;55.750;13.198;2023-03-03T08:53:26;8.07;;;4.55;;
69240;SDS011;56352;55.750;13.198;2023-03-03T08:55:53;12.45;;;5.78;;
69240;SDS011;56352;55.750;13.198;2023-03-03T08:58:20;13.10;;;5.35;;
69240;SDS011;56352;55.750;13.198;2023-03-03T09:00:58;10.50;;;5.45;;
69240;SDS011;56352;55.750;13.198;2023-03-03T09:03:25;13.50;;;6.88;;
69240;SDS011;56352;55.750;13.198;2023-03-03T09:05:55;12.93;;;6.65;;
69240;SDS011;56352;55.750;13.198;2023-03-03T09:08:21;17.55;;;6.80;;
69240;SDS011;56352;55.750;13.198;2023-03-03T09:10:48;14.05;;;7.97;;
69240;SDS011;56352;55.750;13.198;2023-03-03T09:13:15;17.45;;;7.85;;
69240;SDS011;56352;55.750;13.198;2023-03-03T09:15:42;16.95;;;8.20;;
69240;SDS011;56352;55.750;13.198;2023-03-03T09:18:13;19.70;;;9.20;;
69240;SDS011;56352;55.750;13.198;2023-03-03T09:20:44;16.90;;;7.80;;
69240;SDS011;56352;55.750;13.198;2023-03-03T09:23:58;17.23;;;8.75;;
69240;SDS011;56352;55.750;13.198;2023-03-03T09:28:44;17.52;;;9.40;;
69240;SDS011;56352;55.750;13.198;2023-03-03T09:31:33;19.60;;;9.68;;
69240;SDS011;56352;55.750;13.198;2023-03-03T09:36:27;17.38;;;8.02;;
69240;SDS011;56352;55.750;13.198;2023-03-03T09:38:57;19.17;;;8.50;;
69240;SDS011;56352;55.750;13.198;2023-03-03T09:49:06;17.45;;;9.15;;
69240;SDS011;56352;55.750;13.198;2023-03-03T09:54:29;12.90;;;8.20;;
69240;SDS011;56352;55.750;13.198;2023-03-03T09:57:06;15.68;;;8.40;;
69240;SDS011;56352;55.750;13.198;2023-03-03T10:09:45;15.70;;;8.05;;
69240;SDS011;56352;55.750;13.198;2023-03-03T10:20:11;13.27;;;8.13;;
69240;SDS011;56352;55.750;13.198;2023-03-03T10:28:34;11.38;;;7.10;;
69240;SDS011;56352;55.750;13.198;2023-03-03T10:31:03;13.93;;;6.72;;
69240;SDS011;56352;55.750;13.198;2023-03-03T10:46:38;10.82;;;6.18;;
69240;SDS011;56352;55.750;13.198;2023-03-03T10:54:14;10.57;;;5.97;;
69240;SDS011;56352;55.750;13.198;2023-03-03T10:56:49;11.38;;;6.28;;
69240;SDS011;56352;55.750;13.198;2023-03-03T11:01:52;11.27;;;5.85;;
69240;SDS011;56352;55.750;13.198;2023-03-03T11:07:27;10.73;;;5.93;;
69240;SDS011;56352;55.750;13.198;2023-03-03T11:10:07;8.93;;;5.65;;
69240;SDS011;56352;55.750;13.198;2023-03-03T11:15:26;8.73;;;5.35;;
69240;SDS011;56352;55.750;13.198;2023-03-03T11:26:07;10.00;;;4.95;;
69240;SDS011;56352;55.750;13.198;2023-03-03T11:33:46;8.93;;;5.68;;
69240;SDS011;56352;55.750;13.198;2023-03-03T11:36:19;7.43;;;5.32;;
69240;SDS011;56352;55.750;13.198;2023-03-03T11:39:07;9.18;;;5.50;;
69240;SDS011;56352;55.750;13.198;2023-03-03T11:41:36;10.32;;;5.50;;
69240;SDS011;56352;55.750;13.198;2023-03-03T11:49:04;10.88;;;5.50;;
69240;SDS011;56352;55.750;13.198;2023-03-03T11:51:35;10.00;;;6.00;;
69240;SDS011;56352;55.750;13.198;2023-03-03T11:54:12;9.88;;;6.00;;
69240;SDS011;56352;55.750;13.198;2023-03-03T11:56:41;10.00;;;5.90;;
69240;SDS011;56352;55.750;13.198;2023-03-03T12:01:56;9.30;;;5.43;;
69240;SDS011;56352;55.750;13.198;2023-03-03T12:04:33;7.80;;;5.20;;
69240;SDS011;56352;55.750;13.198;2023-03-03T12:07:12;12.20;;;5.88;;
69240;SDS011;56352;55.750;13.198;2023-03-03T12:12:26;8.00;;;4.97;;
69240;SDS011;56352;55.750;13.198;2023-03-03T12:17:43;9.13;;;4.75;;
69240;SDS011;56352;55.750;13.198;2023-03-03T12:23:10;6.32;;;4.53;;
69240;SDS011;56352;55.750;13.198;2023-03-03T12:28:29;7.75;;;4.65;;
69240;SDS011;56352;55.750;13.198;2023-03-03T12:33:57;8.55;;;4.85;;
69240;SDS011;56352;55.750;13.198;2023-03-03T12:36:49;10.18;;;4.72;;
69240;SDS011;56352;55.750;13.198;2023-03-03T12:39:12;5.47;;;4.22;;
69240;SDS011;56352;55.750;13.198;2023-03-03T12:52:40;6.68;;;4.78;;
69240;SDS011;56352;55.750;13.198;2023-03-03T12:55:19;8.43;;;4.50;;
69240;SDS011;56352;55.750;13.198;2023-03-03T13:10:53;5.90;;;3.97;;
69240;SDS011;56352;55.750;13.198;2023-03-03T13:13:31;4.95;;;3.88;;
69240;SDS011;56352;55.750;13.198;2023-03-03T13:21:24;22.42;;;4.38;;
69240;SDS011;56352;55.750;13.198;2023-03-03T13:26:20;4.88;;;3.60;;
69240;SDS011;56352;55.750;13.198;2023-03-03T13:28:55;8.13;;;4.07;;
69240;SDS011;56352;55.750;13.198;2023-03-03T13:31:25;5.07;;;3.60;;
69240;SDS011;56352;55.750;13.198;2023-03-03T13:33:54;4.97;;;3.40;;
69240;SDS011;56352;55.750;13.198;2023-03-03T13:36:41;4.90;;;3.53;;
69240;SDS011;56352;55.750;13.198;2023-03-03T13:39:21;5.43;;;3.60;;
69240;SDS011;56352;55.750;13.198;2023-03-03T13:49:33;7.05;;;4.38;;
69240;SDS011;56352;55.750;13.198;2023-03-03T14:04:53;9.43;;;5.07;;
69240;SDS011;56352;55.750;13.198;2023-03-03T14:10:02;10.27;;;5.43;;
69240;SDS011;56352;55.750;13.198;2023-03-03T14:15:33;11.95;;;6.07;;
69240;SDS011;56352;55.750;13.198;2023-03-03T14:18:04;11.25;;;6.47;;
69240;SDS011;56352;55.750;13.198;2023-03-03T14:20:37;9.88;;;5.65;;
69240;SDS011;56352;55.750;13.198;2023-03-03T14:28:16;11.38;;;6.78;;
69240;SDS011;56352;55.750;13.198;2023-03-03T14:30:44;10.65;;;6.70;;
69240;SDS011;56352;55.750;13.198;2023-03-03T14:35:38;9.65;;;5.13;;
69240;SDS011;56352;55.750;13.198;2023-03-03T14:38:08;9.77;;;5.47;;
69240;SDS011;56352;55.750;13.198;2023-03-03T14:40:36;10.55;;;6.20;;
69240;SDS011;56352;55.750;13.198;2023-03-03T14:43:05;9.63;;;6.13;;
69240;SDS011;56352;55.750;13.198;2023-03-03T14:45:43;9.18;;;5.53;;
69240;SDS011;56352;55.750;13.198;2023-03-03T14:50:38;8.40;;;5.55;;
69240;SDS011;56352;55.750;13.198;2023-03-03T14:53:10;9.40;;;5.10;;
69240;SDS011;56352;55.750;13.198;2023-03-03T14:55:39;8.52;;;5.35;;
69240;SDS011;56352;55.750;13.198;2023-03-03T14:58:28;7.15;;;5.40;;
69240;SDS011;56352;55.750;13.198;2023-03-03T15:03:42;8.07;;;5.30;;
69240;SDS011;56352;55.750;13.198;2023-03-03T15:06:10;9.60;;;5.22;;
69240;SDS011;56352;55.750;13.198;2023-03-03T15:08:40;7.20;;;5.15;;
69240;SDS011;56352;55.750;13.198;2023-03-03T15:11:11;6.10;;;4.45;;
69240;SDS011;56352;55.750;13.198;2023-03-03T15:13:38;8.07;;;4.53;;
69240;SDS011;56352;55.750;13.198;2023-03-03T15:16:11;7.32;;;4.75;;
69240;SDS011;56352;55.750;13.198;2023-03-03T15:21:31;8.82;;;4.78;;
69240;SDS011;56352;55.750;13.198;2023-03-03T15:24:16;7.95;;;4.80;;
69240;SDS011;56352;55.750;13.198;2023-03-03T15:34:43;5.60;;;4.60;;
69240;SDS011;56352;55.750;13.198;2023-03-03T15:42:10;6.40;;;3.85;;
69240;SDS011;56352;55.750;13.198;2023-03-03T15:44:47;10.90;;;3.83;;
69240;SDS011;56352;55.750;13.198;2023-03-03T15:57:21;13.10;;;4.65;;
69240;SDS011;56352;55.750;13.198;2023-03-03T16:02:49;13.88;;;5.35;;
69240;SDS011;56352;55.750;13.198;2023-03-03T16:05:29;8.60;;;5.18;;
69240;SDS011;56352;55.750;13.198;2023-03-03T16:08:10;12.23;;;5.88;;
69240;SDS011;56352;55.750;13.198;2023-03-03T16:13:22;18.60;;;8.10;;
69240;SDS011;56352;55.750;13.198;2023-03-03T16:18:48;17.25;;;9.07;;
69240;SDS011;56352;55.750;13.198;2023-03-03T16:23:45;18.63;;;8.13;;
69240;SDS011;56352;55.750;13.198;2023-03-03T16:28:42;17.40;;;8.18;;
69240;SDS011;56352;55.750;13.198;2023-03-03T16:39:03;14.63;;;7.40;;
69240;SDS011;56352;55.750;13.198;2023-03-03T16:47:06;12.60;;;6.07;;
69240;SDS011;56352;55.750;13.198;2023-03-03T16:49:47;9.82;;;5.50;;
69240;SDS011;56352;55.750;13.198;2023-03-03T16:52:14;10.98;;;5.13;;
69240;SDS011;56352;55.750;13.198;2023-03-03T16:59:52;9.27;;;4.32;;
69240;SDS011;56352;55.750;13.198;2023-03-03T17:05:34;15.30;;;4.82;;
69240;SDS011;56352;55.750;13.198;2023-03-03T17:10:26;11.70;;;3.67;;
69240;SDS011;56352;55.750;13.198;2023-03-03T17:15:30;8.25;;;3.47;;
69240;SDS011;56352;55.750;13.198;2023-03-03T17:18:10;12.57;;;4.10;;
69240;SDS011;56352;55.750;13.198;2023-03-03T17:35:58;5.63;;;3.15;;
69240;SDS011;56352;55.750;13.198;2023-03-03T17:44:12;10.02;;;4.03;;
69240;SDS011;56352;55.750;13.198;2023-03-03T17:46:47;10.25;;;4.40;;
69240;SDS011;56352;55.750;13.198;2023-03-03T17:49:28;5.78;;;3.63;;
69240;SDS011;56352;55.750;13.198;2023-03-03T18:22:50;10.93;;;4.68;;
69240;SDS011;56352;55.750;13.198;2023-03-03T18:35:23;18.25;;;4.60;;
69240;SDS011;56352;55.750;13.198;2023-03-03T18:37:51;10.68;;;4.47;;
69240;SDS011;56352;55.750;13.198;2023-03-03T18:40:30;8.68;;;4.43;;
69240;SDS011;56352;55.750;13.198;2023-03-03T18:42:57;10.48;;;4.00;;
69240;SDS011;56352;55.750;13.198;2023-03-03T18:47:58;15.23;;;4.43;;
69240;SDS011;56352;55.750;13.198;2023-03-03T18:55:39;8.00;;;3.30;;
69240;SDS011;56352;55.750;13.198;2023-03-03T19:00:52;6.57;;;3.72;;
69240;SDS011;56352;55.750;13.198;2023-03-03T19:03:24;11.18;;;3.63;;
69240;SDS011;56352;55.750;13.198;2023-03-03T19:05:51;13.32;;;3.33;;
69240;SDS011;56352;55.750;13.198;2023-03-03T19:10:52;9.68;;;3.17;;
69240;SDS011;56352;55.750;13.198;2023-03-03T19:18:25;11.23;;;3.05;;
69240;SDS011;56352;55.750;13.198;2023-03-03T19:20:59;9.50;;;3.53;;
69240;SDS011;56352;55.750;13.198;2023-03-03T19:23:33;8.75;;;2.42;;
69240;SDS011;56352;55.750;13.198;2023-03-03T19:34:19;8.80;;;2.35;;
69240;SDS011;56352;55.750;13.198;2023-03-03T19:39:29;9.75;;;2.97;;
69240;SDS011;56352;55.750;13.198;2023-03-03T19:44:59;10.63;;;2.28;;
69240;SDS011;56352;55.750;13.198;2023-03-03T19:47:37;5.28;;;2.17;;
69240;SDS011;56352;55.750;13.198;2023-03-03T19:52:37;8.88;;;2.47;;
69240;SDS011;56352;55.750;13.198;2023-03-03T20:00:06;8.38;;;2.60;;
69240;SDS011;56352;55.750;13.198;2023-03-03T20:02:45;13.90;;;2.13;;
69240;SDS011;56352;55.750;13.198;2023-03-03T20:15:19;14.40;;;3.22;;
69240;SDS011;56352;55.750;13.198;2023-03-03T20:18:02;18.02;;;3.15;;
69240;SDS011;56352;55.750;13.198;2023-03-03T20:20:40;8.48;;;2.20;;
69240;SDS011;56352;55.750;13.198;2023-03-03T20:25:43;9.85;;;2.60;;
69240;SDS011;56352;55.750;13.198;2023-03-03T20:33:25;8.27;;;2.42;;
69240;SDS011;56352;55.750;13.198;2023-03-03T20:38:51;14.43;;;2.38;;
69240;SDS011;56352;55.750;13.198;2023-03-03T20:46:28;11.32;;;2.50;;
69240;SDS011;56352;55.750;13.198;2023-03-03T21:01:47;19.70;;;5.55;;
69240;SDS011;56352;55.750;13.198;2023-03-03T21:04:26;18.58;;;5.43;;
69240;SDS011;56352;55.750;13.198;2023-03-03T21:06:53;14.90;;;3.92;;
69240;SDS011;56352;55.750;13.198;2023-03-03T21:09:21;13.93;;;4.22;;
69240;SDS011;56352;55.750;13.198;2023-03-03T21:11:47;13.10;;;3.50;;
69240;SDS011;56352;55.750;13.198;2023-03-03T21:16:50;14.63;;;3.85;;
69240;SDS011;56352;55.750;13.198;2023-03-03T21:21:51;21.00;;;4.78;;
69240;SDS011;56352;55.750;13.198;2023-03-03T21:24:17;11.05;;;3.70;;
69240;SDS011;56352;55.750;13.198;2023-03-03T21:29:24;19.33;;;6.03;;
69240;SDS011;56352;55.750;13.198;2023-03-03T21:31:55;13.63;;;4.03;;
69240;SDS011;56352;55.750;13.198;2023-03-03T21:36:49;20.20;;;5.90;;
69240;SDS011;56352;55.750;13.198;2023-03-03T21:42:10;20.42;;;5.50;;